createdAt,value
2023-03-06T00:01:35.872Z,5.30
2023-03-06T00:03:28.370Z,6.90
2023-03-06T00:05:20.137Z,7.10
2023-03-06T00:07:11.749Z,5.40
2023-03-06T00:09:03.838Z,5.70
2023-03-06T00:10:56.456Z,6.10
2023-03-06T00:12:48.896Z,3.40
2023-03-06T00:14:40.780Z,4.80
2023-03-06T00:16:32.563Z,5.00
2023-03-06T00:18:24.432Z,6.00
2023-03-06T00:20:16.748Z,7.90
2023-03-06T00:22:10.195Z,8.00
2023-03-06T00:24:01.901Z,7.70
2023-03-06T00:25:53.345Z,6.00
2023-03-06T00:27:45.597Z,11.10
2023-03-06T00:29:37.532Z,8.90
2023-03-06T00:31:29.076Z,9.80
2023-03-06T00:33:20.983Z,8.20
2023-03-06T00:35:13.245Z,8.60
2023-03-06T00:37:04.931Z,10.40
2023-03-06T00:38:56.425Z,5.10
2023-03-06T00:40:48.009Z,7.80
2023-03-06T00:42:40.263Z,9.20
2023-03-06T00:44:31.992Z,10.00
2023-03-06T00:46:23.455Z,10.70
2023-03-06T00:48:15.703Z,8.70
2023-03-06T00:50:08.147Z,12.50
2023-03-06T00:51:59.971Z,16.30
2023-03-06T00:53:51.757Z,16.80
2023-03-06T00:55:46.264Z,16.40
2023-03-06T00:57:38.118Z,14.20
2023-03-06T00:59:29.859Z,14.20
2023-03-06T01:01:21.745Z,15.90
2023-03-06T01:03:13.746Z,13.40
2023-03-06T01:05:06.548Z,13.40
2023-03-06T01:06:57.916Z,10.30
2023-03-06T01:08:49.809Z,10.90
2023-03-06T01:10:41.407Z,10.20
2023-03-06T01:12:32.905Z,15.70
2023-03-06T01:14:25.288Z,11.60
2023-03-06T01:16:19.167Z,11.30
2023-03-06T01:18:11.059Z,11.40
2023-03-06T01:20:04.641Z,11.70
2023-03-06T01:21:56.573Z,9.90
2023-03-06T01:23:48.576Z,11.00
2023-03-06T01:25:40.366Z,13.30
2023-03-06T01:27:32.318Z,8.80
2023-03-06T01:29:26.487Z,8.20
2023-03-06T01:31:18.182Z,11.50
2023-03-06T01:33:09.967Z,16.60
2023-03-06T01:35:03.877Z,17.10
2023-03-06T01:36:55.456Z,19.50
2023-03-06T01:38:47.541Z,13.00
2023-03-06T01:40:40.138Z,12.50
2023-03-06T01:42:32.233Z,9.10
2023-03-06T01:44:23.913Z,9.20
2023-03-06T01:46:44.363Z,10.00
2023-03-06T01:48:36.191Z,12.20
2023-03-06T01:50:28.732Z,18.40
2023-03-06T01:52:24.500Z,12.00
2023-03-06T01:54:29.623Z,8.10
2023-03-06T01:56:21.919Z,10.50
2023-03-06T01:58:16.607Z,8.80
2023-03-06T02:00:14.723Z,11.10
2023-03-06T02:02:07.260Z,10.40
2023-03-06T02:03:59.910Z,12.90
2023-03-06T02:05:52.377Z,8.10
2023-03-06T02:07:45.414Z,14.70
2023-03-06T02:11:29.896Z,5.10
2023-03-06T02:13:21.776Z,9.30
2023-03-06T02:15:17.788Z,12.50
2023-03-06T02:17:12.713Z,7.50
2023-03-06T02:19:05.141Z,16.70
2023-03-06T02:21:04.057Z,31.10
2023-03-06T02:23:05.376Z,25.90
2023-03-06T02:25:05.009Z,20.00
2023-03-06T02:26:56.878Z,23.70
2023-03-06T02:28:48.962Z,14.00
2023-03-06T02:30:42.345Z,10.10
2023-03-06T02:32:34.194Z,5.10
2023-03-06T02:34:25.771Z,12.20
2023-03-06T02:36:17.492Z,10.30
2023-03-06T02:38:12.404Z,10.80
2023-03-06T02:40:08.837Z,12.40
2023-03-06T02:42:00.362Z,16.10
2023-03-06T02:43:52.951Z,19.60
2023-03-06T02:45:47.209Z,11.90
2023-03-06T02:47:38.670Z,13.90
2023-03-06T02:49:30.043Z,8.60
2023-03-06T02:51:21.986Z,6.50
2023-03-06T02:53:16.121Z,5.20
2023-03-06T02:55:08.156Z,13.50
2023-03-06T02:57:00.198Z,10.50
2023-03-06T02:58:52.325Z,9.90
2023-03-06T03:00:43.413Z,9.20
2023-03-06T03:02:34.759Z,13.70
2023-03-06T03:04:26.680Z,5.70
2023-03-06T03:06:17.910Z,13.60
2023-03-06T03:08:10.075Z,19.30
2023-03-06T03:10:01.781Z,31.30
2023-03-06T03:11:53.272Z,29.00
2023-03-06T03:13:44.837Z,14.50
2023-03-06T03:15:36.470Z,12.60
2023-03-06T03:17:28.564Z,10.70
2023-03-06T03:19:20.722Z,9.30
2023-03-06T03:21:14.258Z,14.00
2023-03-06T03:23:05.886Z,7.50
2023-03-06T03:24:57.314Z,12.30
2023-03-06T03:26:49.058Z,9.10
2023-03-06T03:28:40.852Z,11.80
2023-03-06T03:30:33.434Z,10.80
2023-03-06T03:32:25.334Z,14.70
2023-03-06T03:34:19.129Z,11.50
2023-03-06T03:36:11.171Z,10.10
2023-03-06T03:38:03.493Z,12.40
2023-03-06T03:39:56.481Z,3.80
2023-03-06T03:41:48.433Z,12.90
2023-03-06T03:43:40.400Z,11.30
2023-03-06T03:45:32.071Z,12.20
2023-03-06T03:47:24.157Z,8.60
2023-03-06T03:49:15.635Z,10.20
2023-03-06T03:51:09.731Z,12.20
2023-03-06T03:53:01.317Z,12.30
2023-03-06T03:54:52.700Z,8.40
2023-03-06T03:56:45.201Z,7.00
2023-03-06T03:58:36.860Z,6.80
2023-03-06T04:00:28.868Z,10.40
2023-03-06T04:02:21.976Z,10.10
2023-03-06T04:04:13.899Z,6.10
2023-03-06T04:06:05.645Z,11.70
2023-03-06T04:07:57.332Z,13.20
2023-03-06T04:09:49.345Z,11.10
2023-03-06T04:11:40.880Z,13.70
2023-03-06T04:13:32.879Z,6.90
2023-03-06T04:15:24.885Z,14.80
2023-03-06T04:17:16.164Z,6.50
2023-03-06T04:19:07.937Z,11.10
2023-03-06T04:21:00.102Z,12.20
2023-03-06T04:22:52.240Z,11.40
2023-03-06T04:24:44.047Z,13.50
2023-03-06T04:26:37.020Z,10.60
2023-03-06T04:28:28.817Z,6.60
2023-03-06T04:30:20.792Z,8.60
2023-03-06T04:32:12.644Z,20.70
2023-03-06T04:34:04.489Z,26.30
2023-03-06T04:35:56.089Z,21.80
2023-03-06T04:37:47.856Z,30.50
2023-03-06T04:39:39.226Z,29.50
2023-03-06T04:41:31.348Z,20.00
2023-03-06T04:43:23.029Z,21.60
2023-03-06T04:45:15.494Z,8.50
2023-03-06T04:49:00.033Z,17.20
2023-03-06T04:50:52.024Z,23.20
2023-03-06T04:52:43.770Z,18.60
2023-03-06T04:54:35.789Z,9.20
2023-03-06T04:56:27.304Z,15.70
2023-03-06T04:58:19.097Z,26.40
2023-03-06T05:00:16.441Z,15.40
2023-03-06T05:02:08.451Z,11.20
2023-03-06T05:04:00.279Z,12.40
2023-03-06T05:05:52.008Z,12.20
2023-03-06T05:07:44.430Z,10.80
2023-03-06T05:09:38.297Z,13.40
2023-03-06T05:11:30.793Z,10.30
2023-03-06T05:13:22.552Z,4.50
2023-03-06T05:15:14.676Z,10.30
2023-03-06T05:17:06.699Z,11.10
2023-03-06T05:18:58.479Z,9.80
2023-03-06T05:20:50.208Z,11.00
2023-03-06T05:22:42.240Z,13.00
2023-03-06T05:24:34.314Z,10.20
2023-03-06T05:26:26.146Z,6.70
2023-03-06T05:28:17.980Z,9.70
2023-03-06T05:30:12.961Z,9.40
2023-03-06T05:32:04.996Z,8.20
2023-03-06T05:33:58.070Z,14.70
2023-03-06T05:35:50.108Z,9.40
2023-03-06T05:37:41.545Z,6.80
2023-03-06T05:39:33.407Z,8.30
2023-03-06T05:41:25.175Z,3.60
2023-03-06T05:43:17.036Z,9.00
2023-03-06T05:45:09.373Z,13.10
2023-03-06T05:47:01.796Z,12.00
2023-03-06T05:48:57.577Z,5.40
2023-03-06T05:50:55.488Z,10.80
2023-03-06T05:52:47.584Z,13.40
2023-03-06T05:54:39.386Z,10.70
2023-03-06T05:56:31.013Z,5.60
2023-03-06T05:58:22.927Z,11.40
2023-03-06T06:00:16.284Z,9.10
2023-03-06T06:02:08.134Z,10.20
2023-03-06T06:04:00.214Z,7.60
2023-03-06T06:05:53.122Z,10.90
2023-03-06T06:07:45.078Z,19.80
2023-03-06T06:09:37.011Z,11.20
2023-03-06T06:11:28.482Z,11.90
2023-03-06T06:13:20.235Z,10.80
2023-03-06T06:15:11.924Z,9.70
2023-03-06T06:17:04.155Z,11.20
2023-03-06T06:18:57.306Z,11.60
2023-03-06T06:22:40.412Z,13.90
2023-03-06T06:24:32.518Z,13.60
2023-03-06T06:26:24.142Z,10.00
2023-03-06T06:28:15.512Z,14.60
2023-03-06T06:30:10.360Z,16.20
2023-03-06T06:32:02.181Z,8.60
2023-03-06T06:33:54.086Z,13.70
2023-03-06T06:35:45.725Z,18.10
2023-03-06T06:37:37.164Z,15.90
2023-03-06T06:39:29.577Z,21.50
2023-03-06T06:41:42.687Z,7.60
2023-03-06T06:43:32.480Z,10.80
2023-03-06T06:45:25.802Z,16.60
2023-03-06T06:47:23.113Z,13.30
2023-03-06T06:49:16.549Z,10.20
2023-03-06T06:51:07.867Z,7.40
2023-03-06T06:52:59.938Z,11.30
2023-03-06T06:54:52.755Z,6.90
2023-03-06T06:56:44.724Z,11.60
2023-03-06T06:58:36.642Z,9.90
2023-03-06T07:00:28.148Z,7.60
2023-03-06T07:02:19.727Z,9.10
2023-03-06T07:04:15.287Z,6.90
2023-03-06T07:06:07.389Z,9.80
2023-03-06T07:07:59.113Z,9.40
2023-03-06T07:09:50.895Z,10.60
2023-03-06T07:11:42.870Z,6.80
2023-03-06T07:13:35.132Z,4.70
2023-03-06T07:15:27.296Z,9.50
2023-03-06T07:17:19.127Z,10.90
2023-03-06T07:19:10.941Z,10.60
2023-03-06T07:21:02.489Z,14.00
2023-03-06T07:22:54.529Z,13.70
2023-03-06T07:24:46.169Z,13.90
2023-03-06T07:26:39.089Z,10.70
2023-03-06T07:28:40.006Z,10.60
2023-03-06T07:30:41.114Z,14.00
2023-03-06T07:32:32.920Z,13.20
2023-03-06T07:34:24.569Z,8.10
2023-03-06T07:36:15.992Z,35.60
2023-03-06T07:38:08.319Z,9.30
2023-03-06T07:40:00.233Z,7.50
2023-03-06T07:41:52.570Z,8.70
2023-03-06T07:43:45.225Z,8.00
2023-03-06T07:47:28.834Z,8.70
2023-03-06T07:49:21.052Z,9.80
2023-03-06T07:51:18.061Z,7.10
2023-03-06T07:53:10.880Z,6.80
2023-03-06T07:55:04.208Z,10.20
2023-03-06T07:56:57.651Z,8.50
2023-03-06T07:58:50.801Z,9.40
2023-03-06T08:00:42.436Z,8.70
2023-03-06T08:02:33.878Z,7.90
2023-03-06T08:04:26.230Z,7.20
2023-03-06T08:06:22.557Z,7.20
2023-03-06T08:08:14.586Z,10.90
2023-03-06T08:10:06.592Z,4.90
2023-03-06T08:11:57.948Z,7.60
2023-03-06T08:13:52.788Z,9.10
2023-03-06T08:15:48.320Z,8.70
2023-03-06T08:17:40.261Z,14.30
2023-03-06T08:19:32.161Z,9.20
2023-03-06T08:21:25.919Z,13.50
2023-03-06T08:23:17.788Z,8.20
2023-03-06T08:25:10.529Z,19.90
2023-03-06T08:27:02.153Z,16.30
2023-03-06T08:28:56.550Z,16.30
2023-03-06T08:30:48.530Z,20.30
2023-03-06T08:32:40.241Z,15.60
2023-03-06T08:34:32.081Z,8.20
2023-03-06T08:36:24.295Z,14.90
2023-03-06T08:38:15.917Z,16.60
2023-03-06T08:40:08.730Z,18.40
2023-03-06T08:42:00.500Z,13.30
2023-03-06T08:43:52.588Z,18.70
2023-03-06T08:45:44.172Z,14.60
2023-03-06T08:47:36.381Z,20.40
2023-03-06T08:49:28.296Z,22.20
2023-03-06T08:51:20.949Z,25.80
2023-03-06T08:53:12.846Z,13.90
2023-03-06T08:55:05.308Z,18.40
2023-03-06T08:56:57.175Z,12.20
2023-03-06T08:58:49.808Z,20.10
2023-03-06T09:00:41.646Z,12.10
2023-03-06T09:02:33.517Z,15.10
2023-03-06T09:04:25.418Z,15.90
2023-03-06T09:06:17.645Z,16.30
2023-03-06T09:08:11.977Z,5.50
2023-03-06T09:10:04.412Z,12.00
2023-03-06T09:11:56.629Z,12.10
2023-03-06T09:13:48.335Z,12.80
2023-03-06T09:15:39.919Z,7.60
2023-03-06T09:17:31.353Z,9.80
2023-03-06T09:19:22.677Z,11.80
2023-03-06T09:21:13.910Z,14.00
2023-03-06T09:23:05.579Z,14.90
2023-03-06T09:24:57.813Z,15.00
2023-03-06T09:26:51.178Z,13.60
2023-03-06T09:28:47.461Z,13.40
2023-03-06T09:30:41.047Z,20.20
2023-03-06T09:32:32.878Z,14.90
2023-03-06T09:34:24.513Z,14.10
2023-03-06T09:36:24.751Z,10.10
2023-03-06T09:38:17.635Z,14.60
2023-03-06T09:40:29.512Z,13.50
2023-03-06T09:42:23.866Z,8.30
2023-03-06T09:44:18.476Z,12.60
2023-03-06T09:46:25.114Z,12.10
2023-03-06T09:48:17.186Z,11.90
2023-03-06T09:50:11.496Z,12.90
2023-03-06T09:52:11.781Z,10.60
2023-03-06T09:54:13.782Z,8.40
2023-03-06T09:56:17.408Z,9.90
2023-03-06T09:58:20.888Z,13.90
2023-03-06T10:00:15.301Z,11.70
2023-03-06T10:02:37.799Z,7.10
2023-03-06T10:04:32.720Z,8.20
2023-03-06T10:06:32.316Z,10.00
2023-03-06T10:08:47.230Z,9.70
2023-03-06T10:10:49.318Z,10.90
2023-03-06T10:12:53.975Z,8.10
2023-03-06T10:14:55.887Z,12.30
2023-03-06T10:16:47.753Z,13.90
2023-03-06T10:18:40.299Z,7.10
2023-03-06T10:21:04.748Z,6.60
2023-03-06T10:23:26.613Z,11.40
2023-03-06T10:25:53.331Z,12.00
2023-03-06T10:28:08.270Z,13.40
2023-03-06T10:30:06.906Z,13.40
2023-03-06T10:32:21.369Z,12.10
2023-03-06T10:34:23.018Z,8.90
2023-03-06T10:36:16.537Z,9.60
2023-03-06T10:38:31.860Z,11.20
2023-03-06T10:40:30.637Z,8.40
2023-03-06T10:42:22.917Z,15.70
2023-03-06T10:44:14.341Z,10.80
2023-03-06T10:46:08.200Z,8.40
2023-03-06T10:48:12.140Z,8.40
2023-03-06T10:50:18.663Z,9.40
2023-03-06T10:52:10.281Z,9.80
2023-03-06T10:54:14.201Z,9.00
2023-03-06T10:56:06.273Z,12.20
2023-03-06T10:57:58.098Z,10.20
2023-03-06T10:59:57.542Z,9.80
2023-03-06T11:01:51.796Z,9.90
2023-03-06T11:03:43.448Z,10.10
2023-03-06T11:05:35.105Z,4.10
2023-03-06T11:07:31.550Z,9.50
2023-03-06T11:09:26.324Z,11.20
2023-03-06T11:11:36.825Z,11.40
2023-03-06T11:13:32.589Z,10.00
2023-03-06T11:15:26.365Z,6.30
2023-03-06T11:17:28.822Z,8.40
2023-03-06T11:19:28.998Z,9.00
2023-03-06T11:21:35.329Z,6.40
2023-03-06T11:23:39.690Z,9.10
2023-03-06T11:27:38.301Z,6.30
2023-03-06T11:29:42.369Z,7.60
2023-03-06T11:31:38.681Z,7.50
2023-03-06T11:33:40.278Z,8.50
2023-03-06T11:35:35.873Z,7.30
2023-03-06T11:37:55.443Z,7.70
2023-03-06T11:40:05.937Z,8.60
2023-03-06T11:42:31.979Z,5.80
2023-03-06T11:44:42.232Z,8.10
2023-03-06T11:46:39.053Z,8.40
2023-03-06T11:48:35.769Z,5.40
2023-03-06T11:50:43.716Z,6.80
2023-03-06T11:52:48.741Z,7.40
2023-03-06T11:54:40.309Z,9.10
2023-03-06T11:56:41.318Z,6.70
2023-03-06T11:58:54.704Z,9.70
2023-03-06T12:00:53.686Z,8.60
2023-03-06T12:02:59.216Z,9.60
2023-03-06T12:05:09.590Z,6.40
2023-03-06T12:07:09.028Z,5.80
2023-03-06T12:09:12.948Z,8.80
2023-03-06T12:11:09.707Z,7.20
2023-03-06T12:13:28.920Z,12.20
2023-03-06T12:15:48.584Z,10.90
2023-03-06T12:17:59.301Z,14.20
2023-03-06T12:20:23.388Z,9.40
2023-03-06T12:22:53.370Z,9.70
2023-03-06T12:25:27.815Z,3.50
2023-03-06T12:27:48.036Z,13.50
2023-03-06T12:30:13.848Z,10.20
2023-03-06T12:32:30.103Z,9.30
2023-03-06T12:34:44.640Z,9.30
2023-03-06T12:36:43.264Z,7.10
2023-03-06T12:39:01.435Z,8.50
2023-03-06T12:41:14.480Z,7.80
2023-03-06T12:43:27.659Z,8.70
2023-03-06T12:45:22.517Z,10.60
2023-03-06T12:47:18.492Z,7.30
2023-03-06T12:49:26.365Z,7.10
2023-03-06T12:51:23.178Z,11.80
2023-03-06T12:53:30.011Z,7.40
2023-03-06T12:55:25.806Z,8.60
2023-03-06T12:57:17.901Z,6.20
2023-03-06T12:59:44.603Z,11.80
2023-03-06T13:02:16.377Z,9.50
2023-03-06T13:04:27.417Z,11.60
2023-03-06T13:06:50.283Z,11.70
2023-03-06T13:09:17.417Z,8.20
2023-03-06T13:11:35.636Z,9.60
2023-03-06T13:13:41.916Z,11.20
2023-03-06T13:15:41.092Z,10.60
2023-03-06T13:17:36.180Z,9.50
2023-03-06T13:19:28.013Z,12.50
2023-03-06T13:21:42.449Z,11.50
2023-03-06T13:23:35.194Z,12.00
2023-03-06T13:25:26.764Z,9.00
2023-03-06T13:28:03.336Z,12.80
2023-03-06T13:30:06.592Z,9.60
2023-03-06T13:32:01.364Z,11.80
2023-03-06T13:33:54.606Z,11.20
2023-03-06T13:35:57.705Z,10.10
2023-03-06T13:37:51.218Z,12.80
2023-03-06T13:40:14.225Z,12.00
2023-03-06T13:42:07.162Z,13.90
2023-03-06T13:44:01.036Z,12.60
2023-03-06T13:45:52.813Z,9.60
2023-03-06T13:48:21.425Z,13.20
2023-03-06T13:50:38.183Z,12.70
2023-03-06T13:52:35.270Z,13.70
2023-03-06T13:54:55.777Z,13.10
2023-03-06T13:57:12.413Z,14.60
2023-03-06T13:59:31.506Z,10.00
2023-03-06T14:01:26.928Z,14.40
2023-03-06T14:03:49.575Z,16.50
2023-03-06T14:05:49.414Z,14.10
2023-03-06T14:07:48.748Z,11.10
2023-03-06T14:09:45.225Z,11.40
2023-03-06T14:11:37.960Z,12.40
2023-03-06T14:15:45.220Z,11.10
2023-03-06T14:17:39.283Z,12.60
2023-03-06T14:19:33.127Z,13.20
2023-03-06T14:21:46.748Z,13.50
2023-03-06T14:23:42.664Z,15.40
2023-03-06T14:25:34.490Z,13.30
2023-03-06T14:27:48.485Z,15.50
2023-03-06T14:29:40.035Z,13.50
2023-03-06T14:31:34.893Z,15.60
2023-03-06T14:33:34.704Z,17.50
2023-03-06T14:35:31.698Z,12.30
2023-03-06T14:37:25.326Z,13.10
2023-03-06T14:39:36.590Z,12.40
2023-03-06T14:41:30.694Z,13.40
2023-03-06T14:43:26.990Z,14.90
2023-03-06T14:45:19.161Z,17.80
2023-03-06T14:47:22.792Z,11.60
2023-03-06T14:49:19.413Z,12.20
2023-03-06T14:51:22.456Z,11.80
2023-03-06T14:53:21.778Z,12.50
2023-03-06T14:55:21.484Z,12.60
2023-03-06T14:57:15.687Z,7.10
2023-03-06T14:59:11.010Z,12.70
2023-03-06T15:01:06.193Z,15.70
2023-03-06T15:02:58.486Z,11.40
2023-03-06T15:04:53.528Z,17.30
2023-03-06T15:06:45.525Z,15.50
2023-03-06T15:08:39.394Z,17.50
2023-03-06T15:10:35.293Z,19.10
2023-03-06T15:12:26.690Z,15.60
2023-03-06T15:14:20.696Z,16.70
2023-03-06T15:16:15.255Z,16.30
2023-03-06T15:18:28.777Z,14.30
2023-03-06T15:20:41.499Z,13.10
2023-03-06T15:22:41.517Z,15.40
2023-03-06T15:24:36.844Z,14.00
2023-03-06T15:26:33.189Z,17.50
2023-03-06T15:28:31.743Z,17.10
2023-03-06T15:32:25.092Z,15.50
2023-03-06T15:34:26.308Z,23.70
2023-03-06T15:36:27.653Z,15.80
2023-03-06T15:38:32.699Z,27.10
2023-03-06T15:40:26.521Z,24.00
2023-03-06T15:42:22.446Z,22.50
2023-03-06T15:44:15.324Z,21.90
2023-03-06T15:46:07.849Z,35.40
2023-03-06T15:47:59.535Z,32.70
2023-03-06T15:49:53.815Z,40.10
2023-03-06T15:51:45.626Z,27.20
2023-03-06T15:53:37.443Z,36.70
2023-03-06T15:55:29.075Z,29.60
2023-03-06T15:57:29.453Z,23.30
2023-03-06T15:59:26.794Z,28.10
2023-03-06T16:01:18.531Z,28.10
2023-03-06T16:03:11.461Z,30.80
2023-03-06T16:05:05.790Z,19.30
2023-03-06T16:06:57.523Z,23.10
2023-03-06T16:08:48.966Z,20.00
2023-03-06T16:10:42.670Z,16.80
2023-03-06T16:12:34.292Z,19.00
2023-03-06T16:14:25.765Z,22.70
2023-03-06T16:16:19.493Z,27.30
2023-03-06T16:18:12.620Z,27.80
2023-03-06T16:21:56.379Z,25.20
2023-03-06T16:23:47.842Z,22.40
2023-03-06T16:25:41.860Z,17.50
2023-03-06T16:27:33.142Z,16.50
2023-03-06T16:29:26.801Z,21.40
2023-03-06T16:31:18.648Z,14.00
2023-03-06T16:33:14.015Z,16.50
2023-03-06T16:35:05.971Z,16.10
2023-03-06T16:36:57.878Z,18.80
2023-03-06T16:38:50.701Z,20.30
2023-03-06T16:40:42.774Z,33.70
2023-03-06T16:42:34.369Z,21.80
2023-03-06T16:44:26.256Z,26.10
2023-03-06T16:46:20.493Z,24.40
2023-03-06T16:48:16.628Z,28.70
2023-03-06T16:50:20.028Z,26.90
2023-03-06T16:52:11.898Z,28.10
2023-03-06T16:54:03.962Z,26.50
2023-03-06T16:55:55.597Z,24.20
2023-03-06T16:57:47.625Z,28.70
2023-03-06T16:59:39.222Z,25.60
2023-03-06T17:01:30.869Z,26.60
2023-03-06T17:03:22.604Z,26.60
2023-03-06T17:05:14.474Z,23.20
2023-03-06T17:07:06.213Z,25.30
2023-03-06T17:08:59.868Z,23.10
2023-03-06T17:10:52.105Z,23.90
2023-03-06T17:12:44.077Z,21.80
2023-03-06T17:14:36.156Z,24.70
2023-03-06T17:16:27.853Z,26.60
2023-03-06T17:18:19.897Z,26.30
2023-03-06T17:20:12.827Z,25.20
2023-03-06T17:23:57.335Z,29.50
2023-03-06T17:27:41.213Z,45.10
2023-03-06T17:29:33.136Z,44.90
2023-03-06T17:31:27.132Z,50.60
2023-03-06T17:33:19.452Z,52.80
2023-03-06T17:35:11.055Z,52.20
2023-03-06T17:37:03.163Z,55.20
2023-03-06T17:38:57.030Z,47.10
2023-03-06T17:40:48.691Z,60.00
2023-03-06T17:42:40.446Z,54.60
2023-03-06T17:44:33.236Z,51.20
2023-03-06T17:46:25.667Z,55.20
2023-03-06T17:48:17.643Z,71.00
2023-03-06T17:50:30.285Z,70.90
2023-03-06T17:52:21.854Z,60.30
2023-03-06T17:54:13.520Z,62.20
2023-03-06T17:56:07.443Z,58.50
2023-03-06T17:57:59.176Z,66.20
2023-03-06T17:59:50.705Z,66.70
2023-03-06T18:01:43.571Z,60.60
2023-03-06T18:05:30.220Z,33.90
2023-03-06T18:07:22.185Z,40.40
2023-03-06T18:09:13.814Z,35.70
2023-03-06T18:11:07.944Z,22.10
2023-03-06T18:13:00.113Z,26.80
2023-03-06T18:14:51.956Z,14.90
2023-03-06T18:16:43.995Z,22.00
2023-03-06T18:18:36.187Z,18.90
2023-03-06T18:20:27.712Z,20.50
2023-03-06T18:22:19.414Z,17.20
2023-03-06T18:24:12.384Z,25.40
2023-03-06T18:28:01.591Z,23.40
2023-03-06T18:29:55.564Z,28.40
2023-03-06T18:31:50.185Z,20.80
2023-03-06T18:33:41.956Z,25.90
2023-03-06T18:35:34.888Z,26.50
2023-03-06T18:37:26.321Z,23.80
2023-03-06T18:39:17.705Z,24.80
2023-03-06T18:41:09.898Z,17.70
2023-03-06T18:43:01.450Z,26.30
2023-03-06T18:44:52.699Z,10.50
2023-03-06T18:46:44.044Z,21.20
2023-03-06T18:48:36.139Z,23.30
2023-03-06T18:50:28.347Z,21.80
2023-03-06T18:52:20.653Z,21.70
2023-03-06T18:54:12.834Z,15.50
2023-03-06T18:56:05.013Z,22.00
2023-03-06T18:57:57.387Z,19.40
2023-03-06T18:59:49.343Z,21.70
2023-03-06T19:01:47.928Z,23.10
2023-03-06T19:03:39.757Z,25.50
2023-03-06T19:05:31.772Z,25.80
2023-03-06T19:07:24.947Z,27.50
2023-03-06T19:09:16.728Z,23.90
2023-03-06T19:11:10.836Z,28.10
2023-03-06T19:13:02.849Z,30.80
2023-03-06T19:14:54.399Z,34.90
2023-03-06T19:16:46.419Z,38.70
2023-03-06T19:18:38.692Z,32.40
2023-03-06T19:20:30.487Z,35.10
2023-03-06T19:22:23.217Z,31.30
2023-03-06T19:24:14.929Z,28.80
2023-03-06T19:26:07.687Z,27.70
2023-03-06T19:28:00.439Z,29.00
2023-03-06T19:29:52.151Z,32.20
2023-03-06T19:31:44.337Z,31.00
2023-03-06T19:33:37.990Z,28.80
2023-03-06T19:35:29.692Z,29.30
2023-03-06T19:37:21.636Z,27.00
2023-03-06T19:39:14.016Z,28.60
2023-03-06T19:41:06.292Z,29.30
2023-03-06T19:42:57.909Z,29.50
2023-03-06T19:44:49.482Z,33.30
2023-03-06T19:46:40.821Z,27.40
2023-03-06T19:48:32.607Z,35.40
2023-03-06T19:50:28.628Z,31.10
2023-03-06T19:52:20.124Z,32.90
2023-03-06T19:54:13.119Z,29.70
2023-03-06T19:56:08.653Z,25.30
2023-03-06T19:58:00.266Z,27.50
2023-03-06T19:59:52.207Z,28.30
2023-03-06T20:01:44.167Z,30.10
2023-03-06T20:03:36.095Z,32.20
2023-03-06T20:05:27.866Z,26.10
2023-03-06T20:07:19.586Z,26.40
2023-03-06T20:09:11.710Z,28.20
2023-03-06T20:11:04.263Z,27.00
2023-03-06T20:12:55.512Z,30.60
2023-03-06T20:14:47.418Z,28.90
2023-03-06T20:16:39.596Z,26.60
2023-03-06T20:18:31.265Z,25.40
2023-03-06T20:20:22.472Z,24.10
2023-03-06T20:22:14.226Z,28.50
2023-03-06T20:24:08.050Z,27.80
2023-03-06T20:26:09.870Z,26.30
2023-03-06T20:28:01.415Z,24.10
2023-03-06T20:29:52.676Z,25.10
2023-03-06T20:31:44.288Z,24.70
2023-03-06T20:33:36.410Z,18.30
2023-03-06T20:35:28.432Z,24.50
2023-03-06T20:37:20.651Z,23.40
2023-03-06T20:39:18.272Z,24.40
2023-03-06T20:41:15.775Z,25.90
2023-03-06T20:43:08.345Z,24.60
2023-03-06T20:45:00.510Z,23.80
2023-03-06T20:46:52.816Z,23.40
2023-03-06T20:48:47.909Z,25.30
2023-03-06T20:50:40.035Z,23.80
2023-03-06T20:52:31.779Z,22.80
2023-03-06T20:54:23.284Z,22.80
2023-03-06T20:56:21.265Z,26.60
2023-03-06T20:58:12.919Z,23.80
2023-03-06T21:00:05.698Z,23.80
2023-03-06T21:01:57.291Z,22.40
2023-03-06T21:03:50.056Z,27.30
2023-03-06T21:05:42.244Z,25.30
2023-03-06T21:07:33.908Z,26.10
2023-03-06T21:09:25.550Z,27.30
2023-03-06T21:11:18.149Z,26.30
2023-03-06T21:13:09.775Z,24.80
2023-03-06T21:15:01.386Z,20.70
2023-03-06T21:16:53.364Z,21.70
2023-03-06T21:18:45.622Z,22.30
2023-03-06T21:20:41.247Z,23.20
2023-03-06T21:22:33.154Z,23.10
2023-03-06T21:24:24.804Z,24.20
2023-03-06T21:26:19.229Z,29.90
2023-03-06T21:28:10.798Z,23.00
2023-03-06T21:30:02.387Z,24.40
2023-03-06T21:31:53.698Z,22.70
2023-03-06T21:33:47.028Z,23.70
2023-03-06T21:35:41.195Z,28.50
2023-03-06T21:37:32.799Z,27.20
2023-03-06T21:39:24.057Z,25.20
2023-03-06T21:41:18.552Z,23.80
2023-03-06T21:43:10.511Z,24.50
2023-03-06T21:45:04.224Z,25.40
2023-03-06T21:46:55.764Z,26.50
2023-03-06T21:48:47.078Z,29.90
2023-03-06T21:50:38.598Z,37.00
2023-03-06T21:52:30.727Z,31.70
2023-03-06T21:54:22.625Z,35.90
2023-03-06T21:56:16.492Z,35.10
2023-03-06T21:58:08.301Z,32.30
2023-03-06T21:59:59.892Z,31.10
2023-03-06T22:01:51.624Z,28.00
2023-03-06T22:03:43.705Z,30.20
2023-03-06T22:05:34.941Z,29.70
2023-03-06T22:07:27.492Z,26.70
2023-03-06T22:09:19.988Z,29.40
2023-03-06T22:11:13.902Z,29.50
2023-03-06T22:13:05.599Z,27.90
2023-03-06T22:14:57.166Z,28.70
2023-03-06T22:16:51.047Z,26.90
2023-03-06T22:18:47.232Z,31.60
2023-03-06T22:20:39.797Z,29.30
2023-03-06T22:22:31.332Z,31.60
2023-03-06T22:24:23.056Z,33.50
2023-03-06T22:26:15.545Z,34.70
2023-03-06T22:28:06.840Z,32.80
2023-03-06T22:29:58.777Z,33.40
2023-03-06T22:31:52.187Z,41.50
2023-03-06T22:33:44.235Z,49.10
2023-03-06T22:35:36.313Z,58.00
2023-03-06T22:37:27.934Z,55.60
2023-03-06T22:39:19.392Z,61.00
2023-03-06T22:41:12.837Z,49.30
2023-03-06T22:43:04.155Z,49.20
2023-03-06T22:44:56.024Z,49.00
2023-03-06T22:46:47.443Z,51.50
2023-03-06T22:48:38.795Z,51.80
2023-03-06T22:50:30.660Z,43.70
2023-03-06T22:52:22.260Z,46.80
2023-03-06T22:54:13.687Z,41.00
2023-03-06T22:56:10.591Z,42.80
2023-03-06T22:58:02.354Z,44.90
2023-03-06T22:59:53.834Z,33.20
2023-03-06T23:01:45.503Z,35.20
2023-03-06T23:03:39.432Z,31.00
2023-03-06T23:05:30.992Z,27.90
2023-03-06T23:07:22.773Z,29.90
2023-03-06T23:09:21.537Z,31.40
2023-03-06T23:11:15.804Z,32.10
2023-03-06T23:13:07.755Z,39.20
2023-03-06T23:14:59.285Z,51.40
2023-03-06T23:16:51.539Z,53.80
2023-03-06T23:18:42.984Z,51.20
2023-03-06T23:20:34.920Z,47.20
2023-03-06T23:22:26.850Z,49.10
2023-03-06T23:24:18.709Z,36.00
2023-03-06T23:26:13.620Z,32.90
2023-03-06T23:28:05.480Z,49.30
2023-03-06T23:29:59.026Z,45.30
2023-03-06T23:31:50.672Z,47.90
2023-03-06T23:33:42.644Z,57.90
2023-03-06T23:35:35.372Z,49.50
2023-03-06T23:37:27.501Z,46.20
2023-03-06T23:39:19.532Z,53.40
2023-03-06T23:41:14.836Z,51.00
2023-03-06T23:43:06.495Z,53.00
2023-03-06T23:44:58.259Z,45.00
2023-03-06T23:46:49.672Z,45.40
2023-03-06T23:48:43.015Z,62.70
2023-03-06T23:50:34.407Z,42.30
2023-03-06T23:52:26.764Z,40.40
2023-03-06T23:54:19.063Z,45.80
2023-03-06T23:56:10.549Z,42.60
2023-03-06T23:58:01.853Z,34.20
2023-03-06T23:59:53.846Z,40.80
